Time;durP1;ratioP1;P1;durP2;ratioP2;P2;SDS_P1;SDS_P2;PMS_P1;PMS_P2;Temp;Humidity;BMP_temperature;BMP_pressure;BME280_temperature;BME280_humidity;BME280_pressure;Samples;Min_cycle;Max_cycle;Signal;HPM_P1;HPM_P2
2021/07/06 00:01:09;;;;;;;2.20;1.10;;;;;;;;;;4817058;28;20187;-78
2021/07/06 00:03:50;;;;;;;1.60;1.03;;;15.10;1.00;;;;;;4820388;28;20184;-78
2021/07/06 00:06:32;;;;;;;1.93;1.30;;;15.10;1.00;;;;;;4821447;28;20179;-77
2021/07/06 00:09:13;;;;;;;1.17;0.80;;;15.00;1.00;;;;;;4821384;28;20171;-76
2021/07/06 00:11:55;;;;;;;1.03;0.80;;;;;;;;;;4834246;28;20585;-76
2021/07/06 00:14:35;;;;;;;2.07;1.10;;;15.00;1.00;;;;;;4821490;28;20188;-77
2021/07/06 00:17:17;;;;;;;3.00;1.50;;;;;;;;;;4821043;28;20188;-76
2021/07/06 00:19:58;;;;;;;2.10;1.13;;;14.80;1.00;;;;;;4821304;28;20275;-77
2021/07/06 00:22:41;;;;;;;1.70;1.00;;;14.80;99.90;;;;;;4821055;28;20298;-78
2021/07/06 00:25:23;;;;;;;2.80;1.63;;;;;;;;;;4820689;28;20179;-76
2021/07/06 00:28:04;;;;;;;7.17;3.30;;;14.70;99.90;;;;;;4820113;28;20826;-77
2021/07/06 00:30:45;;;;;;;3.13;1.30;;;;;;;;;;4820058;28;20538;-77
2021/07/06 00:33:29;;;;;;;2.70;1.37;;;14.90;1.00;;;;;;4833467;28;20184;-77
2021/07/06 00:36:10;;;;;;;1.80;1.07;;;14.50;1.00;;;;;;4820993;28;20270;-77
2021/07/06 00:38:53;;;;;;;1.60;0.97;;;14.60;43.70;;;;;;4818340;28;20266;-77
2021/07/06 00:41:34;;;;;;;1.80;1.07;;;14.50;99.90;;;;;;4833176;28;20645;-77
2021/07/06 00:44:16;;;;;;;1.10;0.80;;;;;;;;;;4820446;28;20251;-78
2021/07/06 00:46:57;;;;;;;2.63;1.50;;;14.40;1.00;;;;;;4820877;28;20581;-77
2021/07/06 00:49:39;;;;;;;2.93;1.27;;;;;;;;;;4820738;28;20233;-75
2021/07/06 00:52:20;;;;;;;4.13;1.77;;;;;;;;;;4833851;28;20273;-77
2021/07/06 00:55:02;;;;;;;3.03;1.30;;;14.20;1.00;;;;;;4833022;28;20660;-77
2021/07/06 00:57:44;;;;;;;2.20;1.03;;;14.10;1.00;;;;;;4820496;28;20195;-77
2021/07/06 01:00:27;;;;;;;5.30;2.30;;;14.00;1.00;;;;;;4818833;28;20179;-76
2021/07/06 01:03:09;;;;;;;4.37;1.83;;;;;;;;;;4811901;28;20299;-77
2021/07/06 01:05:51;;;;;;;2.50;1.23;;;14.10;1.00;;;;;;4801207;28;20180;-78
2021/07/06 01:08:32;;;;;;;4.37;2.07;;;;;;;;;;4801545;28;20184;-78
2021/07/06 01:11:15;;;;;;;2.53;1.30;;;13.90;99.90;;;;;;4801389;28;20551;-78
2021/07/06 01:13:56;;;;;;;3.33;1.40;;;13.70;1.00;;;;;;4801516;28;20251;-78
2021/07/06 01:16:38;;;;;;;3.10;1.23;;;;;;;;;;4801268;28;20184;-77
2021/07/06 01:19:19;;;;;;;4.87;1.87;;;;;;;;;;4801448;28;20256;-76
2021/07/06 01:22:03;;;;;;;2.40;1.20;;;13.70;1.00;;;;;;4814155;28;20188;-77
2021/07/06 01:24:45;;;;;;;2.37;1.10;;;14.00;1.00;;;;;;4801407;28;20177;-77
2021/07/06 01:27:26;;;;;;;3.53;1.57;;;;;;;;;;4813825;28;20215;-77
2021/07/06 01:30:11;;;;;;;2.37;1.17;;;13.80;1.00;;;;;;4806170;28;20242;-78
2021/07/06 01:32:52;;;;;;;2.60;1.27;;;;;;;;;;4818368;28;20211;-78
2021/07/06 01:35:33;;;;;;;3.37;1.73;;;;;;;;;;4819831;28;20637;-77
2021/07/06 01:38:16;;;;;;;1.90;1.00;;;13.70;99.90;;;;;;4818568;28;20180;-74
2021/07/06 01:40:57;;;;;;;2.03;1.07;;;;;;;;;;4805078;28;20519;-76
2021/07/06 01:43:38;;;;;;;2.10;1.17;;;;;;;;;;4819404;28;20215;-77
2021/07/06 01:46:19;;;;;;;3.07;1.67;;;;;;;;;;4819464;28;20540;-78
2021/07/06 01:49:00;;;;;;;1.47;0.90;;;;;;;;;;4819353;28;20278;-78
2021/07/06 01:51:41;;;;;;;1.37;0.73;;;13.30;1.00;;;;;;4819224;28;20211;-78
2021/07/06 01:54:24;;;;;;;2.60;1.60;;;13.50;1.00;;;;;;4819320;28;20179;-79
2021/07/06 01:57:05;;;;;;;2.90;1.30;;;13.50;1.00;;;;;;4819849;28;20179;-78
2021/07/06 01:59:47;;;;;;;2.47;1.30;;;13.40;1.00;;;;;;4819108;28;20184;-77
2021/07/06 02:02:28;;;;;;;2.83;1.40;;;;;;;;;;4814800;28;20238;-77
2021/07/06 02:05:26;;;;;;;1.43;0.90;;;13.30;1.00;;;;;;4818000;28;20481;-77
2021/07/06 02:08:08;;;;;;;1.43;1.00;;;13.40;1.00;;;;;;4818004;28;20219;-77
2021/07/06 02:10:54;;;;;;;1.47;1.03;;;13.30;1.00;;;;;;4831865;28;20210;-78
2021/07/06 02:13:35;;;;;;;1.60;1.10;;;;;;;;;;4819082;28;20183;-77
2021/07/06 02:16:16;;;;;;;1.53;1.03;;;;;;;;;;4819064;28;20537;-77
2021/07/06 02:18:58;;;;;;;1.07;0.93;;;13.10;1.00;;;;;;4819029;28;20176;-78
2021/07/06 02:21:39;;;;;;;1.07;0.87;;;;;;;;;;4818843;28;20692;-77
2021/07/06 02:24:20;;;;;;;1.50;1.10;;;;;;;;;;4819094;28;20183;-78
2021/07/06 02:27:02;;;;;;;1.23;0.93;;;13.00;1.00;;;;;;4831852;28;20180;-78
2021/07/06 02:29:45;;;;;;;1.33;1.10;;;13.30;1.00;;;;;;4819426;28;20184;-77
2021/07/06 02:32:26;;;;;;;2.17;1.47;;;13.30;1.00;;;;;;4831448;28;20207;-77
2021/07/06 02:35:09;;;;;;;1.63;1.20;;;13.00;1.00;;;;;;4831534;28;20219;-78
2021/07/06 02:37:50;;;;;;;1.13;0.93;;;;;;;;;;4818942;28;20215;-78
2021/07/06 02:40:32;;;;;;;1.50;1.20;;;;;;;;;;4832160;28;20204;-77
2021/07/06 02:43:14;;;;;;;1.93;1.40;;;13.50;1.00;;;;;;4818118;28;20218;-78
2021/07/06 02:45:56;;;;;;;0.70;0.60;;;;;;;;;;4831786;28;20283;-78
2021/07/06 02:48:38;;;;;;;0.70;0.70;;;12.90;1.00;;;;;;4819539;28;20626;-77
2021/07/06 02:51:19;;;;;;;1.17;1.03;;;;;;;;;;4818166;28;20207;-78
2021/07/06 02:54:00;;;;;;;1.83;0.90;;;12.90;1.00;;;;;;4819292;28;20514;-79
2021/07/06 02:56:41;;;;;;;2.17;1.07;;;;;;;;;;4818670;28;20645;-78
2021/07/06 02:59:23;;;;;;;3.23;1.93;;;12.80;1.00;;;;;;4830878;28;20175;-78
2021/07/06 03:02:05;;;;;;;2.23;1.20;;;13.00;1.00;;;;;;4814989;28;20569;-77
2021/07/06 03:04:46;;;;;;;1.83;1.20;;;;;;;;;;4822649;28;20176;-79
2021/07/06 03:07:27;;;;;;;2.07;1.43;;;13.00;1.00;;;;;;4834385;28;20179;-78
2021/07/06 03:10:10;;;;;;;1.33;1.00;;;12.90;1.00;;;;;;4822460;28;20176;-78
2021/07/06 03:12:51;;;;;;;1.47;1.00;;;;;;;;;;4821983;28;20219;-77
2021/07/06 03:15:34;;;;;;;2.17;1.53;;;13.00;1.00;;;;;;4822058;28;20179;-77
2021/07/06 03:18:16;;;;;;;1.23;0.90;;;;;;;;;;4835345;28;20215;-75
2021/07/06 03:20:57;;;;;;;2.07;1.10;;;13.40;1.00;;;;;;4834826;28;20196;-77
2021/07/06 03:23:39;;;;;;;1.20;0.97;;;;;;;;;;4835325;28;20180;-78
2021/07/06 03:26:20;;;;;;;1.10;0.93;;;;;;;;;;4834997;28;20179;-78
2021/07/06 03:29:01;;;;;;;1.50;1.17;;;;;;;;;;4834341;28;20208;-76
2021/07/06 03:31:44;;;;;;;1.50;1.10;;;13.20;1.00;;;;;;4822183;28;20215;-78
2021/07/06 03:34:26;;;;;;;1.70;1.30;;;13.30;1.00;;;;;;4833696;28;20199;-78
2021/07/06 03:37:08;;;;;;;1.20;1.10;;;13.30;1.00;;;;;;4822008;28;20176;-78
2021/07/06 03:39:49;;;;;;;0.90;0.77;;;;;;;;;;4822091;28;20211;-76
2021/07/06 03:42:30;;;;;;;1.77;1.37;;;13.40;1.00;;;;;;4821160;28;20206;-78
2021/07/06 03:45:13;;;;;;;1.20;0.90;;;13.40;1.00;;;;;;4821659;28;20219;-79
2021/07/06 03:47:56;;;;;;;1.40;1.03;;;13.50;1.00;;;;;;4820853;28;20176;-77
2021/07/06 03:50:37;;;;;;;0.97;0.80;;;13.50;1.00;;;;;;4821217;28;20219;-77
2021/07/06 03:53:19;;;;;;;0.87;0.80;;;;;;;;;;4821056;28;20527;-76
2021/07/06 03:56:00;;;;;;;1.07;0.87;;;14.00;1.00;;;;;;4820571;28;20180;-77
2021/07/06 03:58:40;;;;;;;1.37;1.00;;;13.60;20.10;;;;;;4821929;28;20211;-75
2021/07/06 04:01:22;;;;;;;1.80;1.40;;;;;;;;;;4818033;28;20268;-76
2021/07/06 04:04:05;;;;;;;0.73;0.63;;;13.90;48.30;;;;;;4821707;28;20187;-77
2021/07/06 04:06:46;;;;;;;1.23;1.00;;;;;;;;;;4821069;28;20179;-76
2021/07/06 04:09:27;;;;;;;1.10;1.00;;;;;;;;;;4834195;28;20263;-77
2021/07/06 04:12:08;;;;;;;1.20;0.90;;;14.40;88.80;;;;;;4820853;28;20677;-77
2021/07/06 04:14:49;;;;;;;1.57;1.10;;;;;;;;;;4821425;28;20490;-78
2021/07/06 04:17:30;;;;;;;2.00;1.53;;;;;;;;;;4820286;28;20187;-77
2021/07/06 04:20:14;;;;;;;1.30;1.00;;;14.70;99.90;;;;;;4833610;28;20179;-78
2021/07/06 04:22:55;;;;;;;1.10;0.93;;;;;;;;;;4834198;28;20188;-77
2021/07/06 04:25:37;;;;;;;0.97;0.87;;;;;;;;;;4833771;28;20499;-76
2021/07/06 04:28:18;;;;;;;0.90;0.80;;;;;;;;;;4833606;28;20215;-76
2021/07/06 04:30:59;;;;;;;0.93;0.73;;;15.30;99.90;;;;;;4820824;28;20175;-78
2021/07/06 04:33:41;;;;;;;1.03;0.93;;;;;;;;;;4834935;28;20280;-78
2021/07/06 04:36:23;;;;;;;1.47;1.23;;;15.10;99.90;;;;;;4829562;28;20281;-78
2021/07/06 04:39:03;;;;;;;0.70;0.70;;;15.50;99.90;;;;;;4819845;28;20210;-77
2021/07/06 04:41:45;;;;;;;0.83;0.80;;;15.20;99.90;;;;;;4819862;28;20187;-78
2021/07/06 04:44:26;;;;;;;1.37;1.17;;;15.70;99.90;;;;;;4820356;28;20219;-77
2021/07/06 04:47:08;;;;;;;0.73;0.70;;;;;;;;;;4819807;28;20183;-77
2021/07/06 04:49:49;;;;;;;0.70;0.70;;;15.90;99.90;;;;;;4820672;28;20645;-78
2021/07/06 04:52:32;;;;;;;0.80;0.80;;;16.10;99.90;;;;;;4820094;28;20298;-77
2021/07/06 04:55:14;;;;;;;0.50;0.50;;;16.20;99.90;;;;;;4820774;28;20215;-78
2021/07/06 04:57:55;;;;;;;0.90;0.87;;;;;;;;;;4819516;28;20183;-79
2021/07/06 05:00:36;;;;;;;5.83;4.20;;;16.60;99.90;;;;;;4817251;28;20511;-77
2021/07/06 05:03:17;;;;;;;1.00;0.80;;;;;;;;;;4819003;28;20231;-78
2021/07/06 05:05:58;;;;;;;0.60;0.60;;;;;;;;;;4820694;28;20490;-78
2021/07/06 05:08:41;;;;;;;1.10;0.80;;;17.00;99.90;;;;;;4820639;28;20176;-77
2021/07/06 05:11:23;;;;;;;1.03;0.83;;;17.10;99.90;;;;;;4832791;28;20179;-78
2021/07/06 05:14:05;;;;;;;0.60;0.60;;;16.80;83.30;;;;;;4805945;28;20183;-77
2021/07/06 05:16:46;;;;;;;0.60;0.50;;;;;;;;;;4820125;28;20183;-77
2021/07/06 05:19:28;;;;;;;1.30;1.03;;;17.20;14.60;;;;;;4832115;28;20179;-77
2021/07/06 05:22:09;;;;;;;0.87;0.70;;;;;;;;;;4820506;28;20175;-77
2021/07/06 05:24:52;;;;;;;0.73;0.70;;;17.40;1.00;;;;;;4819619;28;20211;-77
2021/07/06 05:27:33;;;;;;;1.03;0.87;;;17.20;1.00;;;;;;4819393;28;20187;-78
2021/07/06 05:30:16;;;;;;;0.80;0.80;;;17.70;1.00;;;;;;4819347;28;20539;-77
2021/07/06 05:32:58;;;;;;;1.07;0.80;;;;;;;;;;4819746;28;20514;-78
2021/07/06 05:35:39;;;;;;;0.93;0.73;;;;;;;;;;4830708;28;20198;-78
2021/07/06 05:38:20;;;;;;;1.00;0.77;;;;;;;;;;4838487;28;20183;-77
2021/07/06 05:41:05;;;;;;;0.97;0.67;;;18.00;1.00;;;;;;4830651;28;20218;-77
2021/07/06 05:43:46;;;;;;;0.80;0.67;;;18.30;1.00;;;;;;4819673;28;20219;-77
2021/07/06 05:46:28;;;;;;;1.63;1.20;;;18.30;51.80;;;;;;4806835;28;20270;-77
2021/07/06 05:49:09;;;;;;;0.90;0.80;;;18.60;99.90;;;;;;4801185;28;20492;-77
2021/07/06 05:51:50;;;;;;;0.90;0.77;;;18.40;99.90;;;;;;4800507;28;20184;-77
2021/07/06 05:54:32;;;;;;;1.13;1.03;;;18.90;1.00;;;;;;4799415;28;20180;-77
2021/07/06 05:57:14;;;;;;;0.90;0.70;;;19.40;99.90;;;;;;4799435;28;20646;-77
2021/07/06 05:59:56;;;;;;;0.80;0.70;;;;;;;;;;4800952;28;20177;-77
2021/07/06 06:02:37;;;;;;;0.80;0.70;;;;;;;;;;4810564;28;20567;-77
2021/07/06 06:05:18;;;;;;;0.63;0.53;;;;;;;;;;4818343;28;20286;-76
2021/07/06 06:08:00;;;;;;;0.97;0.70;;;19.00;1.00;;;;;;4819467;28;20180;-78
2021/07/06 06:10:41;;;;;;;1.10;0.77;;;19.90;99.90;;;;;;4832036;28;20180;-77
2021/07/06 06:13:23;;;;;;;2.03;1.40;;;19.80;1.00;;;;;;4819199;28;20215;-77
2021/07/06 06:16:05;;;;;;;0.80;0.80;;;;;;;;;;4818941;28;20177;-75
2021/07/06 06:18:53;;;;;;;0.83;0.80;;;;;;;;;;4819454;28;20632;-76
2021/07/06 06:21:34;;;;;;;1.47;1.10;;;20.50;99.90;;;;;;4818954;28;20186;-77
2021/07/06 06:24:15;;;;;;;1.30;1.00;;;;;;;;;;4819098;28;20181;-77
2021/07/06 06:26:56;;;;;;;1.10;0.90;;;20.80;1.00;;;;;;4819193;28;20639;-77
2021/07/06 06:29:38;;;;;;;0.80;0.60;;;20.60;1.00;;;;;;4804251;28;20563;-77
2021/07/06 06:32:19;;;;;;;0.77;0.70;;;20.30;1.00;;;;;;4818955;28;20680;-76
2021/07/06 06:35:00;;;;;;;0.90;0.70;;;21.30;1.00;;;;;;4819201;28;20285;-77
2021/07/06 06:37:42;;;;;;;0.60;0.43;;;20.60;99.90;;;;;;4819727;28;20592;-77
2021/07/06 06:40:23;;;;;;;1.00;0.60;;;;;;;;;;4819594;28;20538;-77
2021/07/06 06:43:04;;;;;;;0.30;0.30;;;21.10;1.00;;;;;;4832522;28;20219;-77
2021/07/06 06:45:47;;;;;;;0.27;0.27;;;20.20;1.00;;;;;;4819697;28;20177;-75
2021/07/06 06:48:28;;;;;;;0.60;0.57;;;;;;;;;;4819601;28;20178;-76
2021/07/06 06:51:11;;;;;;;0.30;0.20;;;21.20;99.90;;;;;;4819842;28;20183;-77
2021/07/06 06:53:52;;;;;;;0.20;0.20;;;20.60;99.90;;;;;;4832553;28;20203;-77
2021/07/06 06:56:35;;;;;;;1.40;1.07;;;;;;;;;;4831729;28;20183;-76
2021/07/06 06:59:17;;;;;;;1.10;0.87;;;21.20;1.00;;;;;;4831303;28;20206;-77
2021/07/06 07:02:18;;;;;;;1.17;0.80;;;21.70;1.00;;;;;;4815212;28;20265;-76
2021/07/06 07:04:59;;;;;;;1.30;1.00;;;21.60;1.00;;;;;;4829942;28;20207;-74
2021/07/06 07:07:41;;;;;;;0.40;0.30;;;;;;;;;;4832336;28;20184;-75
2021/07/06 07:10:22;;;;;;;0.77;0.60;;;22.40;34.20;;;;;;4831615;28;20773;-79
2021/07/06 07:13:03;;;;;;;1.03;0.90;;;;;;;;;;4820189;28;20204;-76
2021/07/06 07:15:44;;;;;;;1.83;1.30;;;;;;;;;;4818429;28;20633;-75
2021/07/06 07:18:26;;;;;;;3.83;1.80;;;23.00;1.00;;;;;;4817348;28;20351;-76
2021/07/06 07:21:07;;;;;;;2.03;0.80;;;23.20;1.00;;;;;;4830581;28;20260;-76
2021/07/06 07:23:49;;;;;;;2.33;1.10;;;;;;;;;;4817365;28;20184;-75
2021/07/06 07:26:29;;;;;;;5.60;2.60;;;24.30;1.00;;;;;;4817006;28;20651;-77
2021/07/06 07:29:11;;;;;;;1.97;1.00;;;24.80;1.00;;;;;;4817546;28;20264;-75
2021/07/06 07:31:52;;;;;;;0.93;0.50;;;24.50;1.00;;;;;;4818120;28;20195;-76
2021/07/06 07:34:34;;;;;;;2.20;1.13;;;24.40;1.00;;;;;;4817591;28;20261;-77
2021/07/06 07:37:16;;;;;;;0.60;0.40;;;;;;;;;;4818024;28;20192;-77
2021/07/06 07:39:57;;;;;;;0.73;0.40;;;;;;;;;;4819431;28;20179;-77
2021/07/06 07:42:38;;;;;;;0.87;0.43;;;25.30;1.00;;;;;;4819092;28;20273;-77
2021/07/06 07:45:19;;;;;;;2.53;1.23;;;;;;;;;;4817403;28;20182;-75
2021/07/06 07:48:01;;;;;;;0.53;0.33;;;;;;;;;;4820072;28;20261;-76
2021/07/06 07:50:44;;;;;;;2.40;1.20;;;26.30;1.00;;;;;;4822292;28;20207;-79
2021/07/06 07:53:25;;;;;;;2.40;1.17;;;26.00;1.00;;;;;;4820353;28;20241;-74
2021/07/06 07:56:06;;;;;;;0.90;0.50;;;26.40;1.00;;;;;;4822178;28;20284;-75
2021/07/06 07:58:47;;;;;;;0.63;0.50;;;26.50;1.00;;;;;;4822564;28;20180;-81
2021/07/06 08:01:28;;;;;;;2.17;1.07;;;25.70;1.00;;;;;;4819549;28;20313;-75
2021/07/06 08:04:09;;;;;;;0.97;0.57;;;;;;;;;;4823173;28;20182;-76
2021/07/06 08:06:51;;;;;;;0.63;0.40;;;25.60;1.00;;;;;;4835408;28;20634;-77
2021/07/06 08:09:33;;;;;;;2.93;1.43;;;;;;;;;;4822059;28;20181;-76
2021/07/06 08:12:14;;;;;;;0.67;0.43;;;;;;;;;;4835009;28;20181;-76
2021/07/06 08:14:55;;;;;;;1.77;0.80;;;;;;;;;;4834876;28;20220;-75
2021/07/06 08:17:37;;;;;;;0.67;0.40;;;25.10;1.00;;;;;;4836921;28;20181;-79
2021/07/06 08:20:18;;;;;;;1.37;0.80;;;25.30;99.90;;;;;;4834067;28;20540;-77
2021/07/06 08:23:01;;;;;;;0.47;0.33;;;24.80;1.00;;;;;;4821057;28;20510;-85
2021/07/06 08:25:42;;;;;;;2.30;1.07;;;;;;;;;;4822265;28;20188;-77
2021/07/06 08:28:24;;;;;;;3.33;1.50;;;;;;;;;;4821121;28;20642;-76
2021/07/06 08:31:05;;;;;;;2.30;1.23;;;25.40;99.90;;;;;;4821956;28;20251;-77
2021/07/06 08:33:46;;;;;;;2.83;1.50;;;25.10;1.00;;;;;;4820445;28;20576;-75
2021/07/06 08:36:27;;;;;;;2.37;1.30;;;;;;;;;;4819645;28;20189;-76
2021/07/06 08:39:09;;;;;;;0.63;0.40;;;25.00;99.90;;;;;;4834760;28;20642;-76
2021/07/06 08:41:51;;;;;;;1.43;0.80;;;;;;;;;;4835387;28;20247;-87
2021/07/06 08:44:32;;;;;;;2.07;1.00;;;;;;;;;;4834683;28;20219;-77
2021/07/06 08:47:17;;;;;;;0.87;0.50;;;25.90;1.00;;;;;;4825066;28;20172;-77
2021/07/06 08:49:59;;;;;;;0.17;0.13;;;;;;;;;;4829019;28;20185;-75
2021/07/06 08:52:44;;;;;;;2.50;1.13;;;26.10;99.90;;;;;;4819922;28;20182;-77
2021/07/06 08:55:27;;;;;;;3.53;1.80;;;26.20;99.90;;;;;;4818951;28;20523;-75
2021/07/06 08:58:09;;;;;;;6.80;1.50;;;;;;;;;;4833529;28;20184;-76
2021/07/06 09:00:50;;;;;;;21.20;3.93;;;;;;;;;;4828867;28;20232;-77
2021/07/06 09:03:52;;;;;;;14.77;2.30;;;27.10;99.90;;;;;;4816112;28;20182;-77
2021/07/06 09:06:54;;;;;;;17.63;2.53;;;27.60;99.90;;;;;;4820282;28;20210;-77
2021/07/06 09:09:35;;;;;;;22.53;3.03;;;;;;;;;;4820426;28;20254;-75
2021/07/06 09:12:19;;;;;;;14.43;2.03;;;28.50;99.90;;;;;;4833160;28;20185;-75
2021/07/06 09:15:19;;;;;;;12.00;1.70;;;28.70;99.90;;;;;;4820378;28;20214;-74
2021/07/06 09:18:12;;;;;;;10.53;1.63;;;28.60;1.00;;;;;;4820239;28;20183;-75
2021/07/06 09:21:03;;;;;;;12.27;1.77;;;29.60;99.90;;;;;;4819548;28;20200;-76
2021/07/06 09:23:44;;;;;;;12.77;1.77;;;30.20;99.90;;;;;;4819450;28;20750;-76
2021/07/06 09:26:29;;;;;;;20.33;2.83;;;31.10;99.90;;;;;;4819866;28;20205;-75
2021/07/06 09:29:16;;;;;;;16.07;2.20;;;32.30;99.90;;;;;;4805696;28;20173;-74
2021/07/06 09:32:05;;;;;;;5.83;0.80;;;34.20;99.90;;;;;;4820881;28;20187;-76
2021/07/06 09:34:47;;;;;;;15.25;2.05;;;36.40;1.00;;;;;;4820218;28;20294;-76
2021/07/06 09:37:28;;;;;;;22.35;2.92;;;;;;;;;;4821427;28;20251;-77
2021/07/06 09:40:28;;;;;;;9.15;1.25;;;40.80;99.90;;;;;;4820204;28;20653;-76
2021/07/06 09:43:21;;;;;;;6.25;0.93;;;42.40;99.90;;;;;;4820658;28;20219;-76
2021/07/06 09:46:08;;;;;;;123.90;116.88;;;43.70;99.90;;;;;;4820885;28;20653;-79
2021/07/06 09:48:51;;;;;;;332.50;310.23;;;;;;;;;;4820032;28;20179;-77
2021/07/06 09:51:40;;;;;;;434.75;399.13;;;45.80;99.90;;;;;;4819888;28;20625;-76
2021/07/06 09:54:33;;;;;;;500.98;454.08;;;46.80;99.90;;;;;;4820233;28;20203;-74
2021/07/06 09:57:37;;;;;;;446.90;406.83;;;47.40;99.90;;;;;;4819043;28;20555;-75
2021/07/06 10:00:21;;;;;;;517.50;463.80;;;48.10;99.90;;;;;;4817202;28;20179;-75
2021/07/06 10:03:05;;;;;;;530.58;478.50;;;48.40;99.90;;;;;;4817059;28;20258;-75
2021/07/06 10:05:46;;;;;;;528.63;476.60;;;48.90;99.90;;;;;;4819157;28;20222;-73
2021/07/06 10:08:28;;;;;;;533.33;480.38;;;;;;;;;;4820047;28;20215;-76
2021/07/06 10:11:09;;;;;;;540.28;487.60;;;;;;;;;;4831728;28;20186;-74
2021/07/06 10:13:52;;;;;;;516.72;470.50;;;;;;;;;;4817790;28;20566;-74
2021/07/06 10:16:35;;;;;;;536.45;483.70;;;49.60;99.90;;;;;;4818789;28;20270;-72
2021/07/06 10:19:19;;;;;;;530.00;478.27;;;50.10;99.90;;;;;;4832220;28;20187;-73
2021/07/06 10:22:00;;;;;;;532.08;479.20;;;;;;;;;;4832304;28;20191;-76
2021/07/06 10:24:43;;;;;;;496.17;459.23;;;50.70;99.90;;;;;;4819849;28;20190;-75
2021/07/06 10:27:26;;;;;;;298.60;280.88;;;51.30;99.90;;;;;;4819535;28;20604;-73
2021/07/06 10:30:08;;;;;;;238.60;226.57;;;52.20;99.90;;;;;;4820479;28;20532;-74
2021/07/06 10:32:52;;;;;;;146.43;136.25;;;52.70;99.90;;;;;;4820917;28;20533;-77
2021/07/06 10:35:49;;;;;;;255.10;240.82;;;53.20;1.00;;;;;;4831614;28;20214;-76
2021/07/06 10:38:45;;;;;;;397.70;375.25;;;52.40;99.90;;;;;;4819301;28;20194;-76
2021/07/06 10:41:51;;;;;;;397.17;373.98;;;52.80;99.90;;;;;;4819508;28;20266;-75
2021/07/06 10:44:34;;;;;;;353.88;334.15;;;52.40;99.90;;;;;;4823123;28;20218;-74
2021/07/06 10:47:34;;;;;;;245.63;233.38;;;52.60;1.00;;;;;;4819261;28;20204;-74
2021/07/06 10:50:48;;;;;;;154.20;145.85;;;53.60;1.00;;;;;;4819829;28;20179;-75
2021/07/06 10:53:29;;;;;;;185.82;174.18;;;;;;;;;;4763110;29;20184;-75
2021/07/06 10:56:11;;;;;;;156.50;148.40;;;;;;;;;;4820012;28;20584;-76
2021/07/06 10:58:54;;;;;;;347.27;324.92;;;53.50;99.90;;;;;;4834433;28;20210;-74
2021/07/06 11:01:58;;;;;;;463.20;431.70;;;53.80;99.90;;;;;;4816231;28;20592;-76
2021/07/06 11:05:17;;;;;;;317.35;301.67;;;54.20;99.90;;;;;;4832073;28;20178;-78
2021/07/06 11:08:00;;;;;;;282.58;268.88;;;53.90;99.90;;;;;;4821184;28;20583;-75
2021/07/06 11:10:43;;;;;;;360.08;340.35;;;54.50;99.90;;;;;;4820543;28;20509;-77
2021/07/06 11:13:31;;;;;;;439.13;412.73;;;54.90;99.90;;;;;;4818799;28;20669;-77
2021/07/06 11:16:36;;;;;;;492.45;460.92;;;54.70;99.90;;;;;;4818613;28;20744;-80
2021/07/06 11:19:33;;;;;;;346.60;328.02;;;53.80;99.90;;;;;;4817272;28;20647;-77
2021/07/06 11:22:16;;;;;;;243.95;231.68;;;55.20;1.00;;;;;;4814069;28;20180;-77
2021/07/06 11:25:18;;;;;;;255.98;241.93;;;55.10;99.90;;;;;;4804192;28;20215;-76
2021/07/06 11:28:00;;;;;;;158.23;149.60;;;53.60;99.90;;;;;;4816900;28;20187;-80
2021/07/06 11:30:44;;;;;;;159.32;151.23;;;53.60;99.90;;;;;;4804852;28;20180;-74
2021/07/06 11:33:26;;;;;;;219.70;206.38;;;53.70;99.90;;;;;;4802192;28;20629;-75
2021/07/06 11:36:09;;;;;;;244.13;230.18;;;54.10;99.90;;;;;;4817152;28;20637;-76
2021/07/06 11:38:51;;;;;;;226.70;215.65;;;54.20;99.90;;;;;;4806310;28;20180;-74
2021/07/06 11:41:34;;;;;;;194.45;183.88;;;54.40;99.90;;;;;;4804409;28;20179;-79
2021/07/06 11:44:20;;;;;;;232.50;220.63;;;55.30;99.90;;;;;;4803523;28;20313;-75
2021/07/06 11:47:09;;;;;;;209.75;199.55;;;55.10;99.90;;;;;;4804394;28;20179;-77
2021/07/06 11:49:50;;;;;;;303.17;287.77;;;55.60;1.00;;;;;;4802982;28;20183;-75
2021/07/06 11:52:31;;;;;;;498.38;466.55;;;55.60;1.00;;;;;;4803661;28;20187;-75
2021/07/06 11:55:12;;;;;;;468.58;440.05;;;55.70;1.00;;;;;;4817021;28;20179;-79
2021/07/06 11:57:56;;;;;;;499.38;468.63;;;56.50;99.90;;;;;;4837577;28;20788;-76
2021/07/06 12:00:40;;;;;;;389.88;355.27;;;56.70;99.90;;;;;;4819849;28;20226;-78
2021/07/06 12:03:25;;;;;;;263.98;248.85;;;56.50;1.00;;;;;;4812758;28;20194;-78
2021/07/06 12:06:08;;;;;;;511.15;470.10;;;56.10;99.90;;;;;;4820834;28;20687;-81
2021/07/06 12:08:51;;;;;;;557.97;505.65;;;56.40;99.90;;;;;;4824310;28;20186;-75
2021/07/06 12:11:32;;;;;;;395.38;362.92;;;56.40;1.00;;;;;;4822068;28;20567;-76
2021/07/06 12:14:20;;;;;;;31.30;21.60;;;55.00;99.90;;;;;;4822223;28;20191;-75
2021/07/06 12:17:03;;;;;;;42.97;39.45;;;55.40;99.90;;;;;;4820635;28;20625;-76
2021/07/06 12:19:44;;;;;;;56.95;52.13;;;55.60;99.90;;;;;;4820330;28;20636;-74
2021/07/06 12:22:26;;;;;;;38.65;5.55;;;56.10;99.90;;;;;;4818862;28;20273;-76
2021/07/06 12:25:08;;;;;;;18.67;2.95;;;56.40;99.90;;;;;;4805819;28;20206;-76
2021/07/06 12:27:49;;;;;;;28.25;4.13;;;;;;;;;;4819988;28;20179;-76
2021/07/06 12:30:32;;;;;;;30.77;5.13;;;55.60;1.00;;;;;;4833692;28;20179;-75
2021/07/06 12:33:13;;;;;;;48.80;44.17;;;55.90;1.00;;;;;;4821428;28;20182;-77
2021/07/06 12:36:00;;;;;;;40.05;37.10;;;56.60;99.90;;;;;;4821289;28;20518;-77
2021/07/06 12:38:41;;;;;;;6.93;5.50;;;57.00;1.00;;;;;;4835273;28;20179;-76
2021/07/06 12:41:22;;;;;;;30.35;16.55;;;57.40;99.90;;;;;;4822030;28;20215;-76
2021/07/06 12:44:03;;;;;;;41.33;37.00;;;57.40;99.90;;;;;;4832262;28;20222;-76
2021/07/06 12:46:46;;;;;;;68.30;62.42;;;57.60;99.90;;;;;;4817345;28;20557;-75
2021/07/06 12:49:27;;;;;;;59.00;49.55;;;57.30;1.00;;;;;;4833301;28;20175;-78
2021/07/06 12:52:09;;;;;;;49.75;45.22;;;;;;;;;;4819685;28;20179;-75
2021/07/06 12:54:50;;;;;;;74.03;67.35;;;;;;;;;;4819169;28;20183;-78
2021/07/06 12:57:32;;;;;;;105.53;96.15;;;56.40;99.90;;;;;;4819677;28;20175;-77
2021/07/06 13:00:16;;;;;;;76.05;70.65;;;56.50;99.90;;;;;;4819817;28;20178;-76
2021/07/06 13:03:05;;;;;;;50.47;46.38;;;56.50;99.90;;;;;;4818967;28;20226;-76
2021/07/06 13:05:48;;;;;;;58.53;54.17;;;57.20;1.00;;;;;;4823898;28;20206;-76
2021/07/06 13:08:32;;;;;;;52.00;19.38;;;55.70;99.90;;;;;;4826222;28;20190;-76
2021/07/06 13:11:17;;;;;;;21.55;15.30;;;55.90;99.90;;;;;;4841365;28;20789;-77
2021/07/06 13:14:16;;;;;;;20.95;15.02;;;56.00;99.90;;;;;;4825319;28;20178;-77
2021/07/06 13:16:57;;;;;;;15.20;3.40;;;56.40;1.00;;;;;;4818842;28;20258;-75
2021/07/06 13:19:40;;;;;;;16.15;2.85;;;56.40;99.90;;;;;;4818712;28;20183;-75
2021/07/06 13:22:21;;;;;;;9.68;2.00;;;56.10;99.90;;;;;;4819936;28;20190;-75
2021/07/06 13:25:03;;;;;;;15.63;2.85;;;56.90;1.00;;;;;;4820303;28;20179;-76
2021/07/06 13:27:48;;;;;;;9.70;2.03;;;56.40;1.00;;;;;;4818733;28;20183;-77
2021/07/06 13:30:32;;;;;;;30.70;4.88;;;56.20;99.90;;;;;;4804616;28;20182;-76
2021/07/06 13:33:16;;;;;;;14.23;2.38;;;56.00;1.00;;;;;;4820828;28;20183;-76
2021/07/06 13:36:00;;;;;;;16.45;2.75;;;56.00;99.90;;;;;;4819737;28;20179;-78
2021/07/06 13:38:41;;;;;;;12.43;2.30;;;;;;;;;;4818811;28;20191;-76
2021/07/06 13:41:22;;;;;;;11.30;1.88;;;;;;;;;;4818732;28;20640;-77
2021/07/06 13:44:04;;;;;;;24.08;4.65;;;54.00;99.90;;;;;;4819021;28;20254;-77
2021/07/06 13:46:45;;;;;;;18.80;3.53;;;;;;;;;;4816504;28;20232;-75
2021/07/06 13:49:26;;;;;;;24.27;3.88;;;;;;;;;;4819096;28;20175;-77
2021/07/06 13:52:09;;;;;;;11.27;1.85;;;51.80;99.90;;;;;;4818507;28;20171;-79
2021/07/06 13:54:51;;;;;;;12.65;2.00;;;;;;;;;;4818033;28;20183;-75
2021/07/06 13:57:33;;;;;;;36.67;4.63;;;46.40;99.90;;;;;;4818307;28;20186;-77
2021/07/06 14:00:15;;;;;;;24.85;3.20;;;44.90;1.00;;;;;;4816626;28;20211;-76
2021/07/06 14:02:58;;;;;;;27.98;3.55;;;;;;;;;;4816056;28;20230;-75
2021/07/06 14:05:41;;;;;;;33.90;4.07;;;42.70;99.90;;;;;;4831951;28;20203;-77
2021/07/06 14:08:23;;;;;;;17.63;2.35;;;41.30;99.90;;;;;;4830848;28;20179;-75
2021/07/06 14:11:05;;;;;;;19.02;2.47;;;;;;;;;;4818639;28;20187;-77
2021/07/06 14:13:46;;;;;;;10.75;1.40;;;;;;;;;;4820023;28;20175;-76
2021/07/06 14:16:27;;;;;;;49.72;6.15;;;;;;;;;;4816982;28;20187;-74
2021/07/06 14:19:09;;;;;;;9.32;1.30;;;;;;;;;;4817468;28;20184;-75
2021/07/06 14:21:50;;;;;;;18.55;2.42;;;;;;;;;;4831024;28;20242;-75
2021/07/06 14:24:34;;;;;;;28.15;3.60;;;35.40;1.00;;;;;;4818363;28;20263;-77
2021/07/06 14:27:15;;;;;;;9.35;1.30;;;;;;;;;;4832402;28;20206;-75
2021/07/06 14:29:56;;;;;;;19.73;2.60;;;34.30;1.00;;;;;;4830965;28;20184;-75
2021/07/06 14:32:38;;;;;;;33.50;4.20;;;34.00;99.90;;;;;;4830658;28;20179;-75
2021/07/06 14:35:19;;;;;;;18.98;2.42;;;33.70;1.00;;;;;;4810730;28;20191;-76
2021/07/06 14:38:01;;;;;;;15.30;2.03;;;;;;;;;;4815401;28;20180;-73
2021/07/06 14:40:44;;;;;;;15.10;2.05;;;33.00;99.90;;;;;;4831189;28;20215;-76